Time;durP1;ratioP1;P1;durP2;ratioP2;P2;SDS_P1;SDS_P2;PMS_P1;PMS_P2;Temp;Humidity;BMP_temperature;BMP_pressure;BME280_temperature;BME280_humidity;BME280_pressure;Samples;Min_cycle;Max_cycle;Signal;HPM_P1;HPM_P2
2022/08/06 00:02:15;;;;;;;6.50;1.17;;;;;;;14.52;72.50;102022.84;4984674;28;20019;-73
2022/08/06 00:04:40;;;;;;;12.52;1.60;;;;;;;14.35;72.60;102021.81;4980388;28;20090;-73
2022/08/06 00:07:06;;;;;;;6.82;1.20;;;;;;;14.38;73.09;102029.66;4983734;28;20117;-72
2022/08/06 00:09:32;;;;;;;11.40;1.75;;;;;;;14.41;72.50;102032.09;4977711;28;20031;-75
2022/08/06 00:12:02;;;;;;;11.88;1.25;;;;;;;14.45;72.78;102032.63;4980433;28;20474;-75
2022/08/06 00:14:29;;;;;;;10.85;1.27;;;;;;;14.44;72.51;102028.19;4981239;28;20026;-72
2022/08/06 00:16:55;;;;;;;8.27;1.20;;;;;;;14.48;72.52;102026.91;4981019;28;20026;-72
2022/08/06 00:19:20;;;;;;;3.47;1.10;;;;;;;14.26;73.19;102029.03;4992330;28;20019;-73
2022/08/06 00:21:46;;;;;;;8.52;1.48;;;;;;;14.39;73.13;102029.50;4992327;28;20018;-73
2022/08/06 00:24:12;;;;;;;4.65;1.52;;;;;;;14.39;72.86;102034.94;5000980;28;20096;-73
2022/08/06 00:26:38;;;;;;;6.85;1.50;;;;;;;14.45;72.55;102035.34;4992120;28;20077;-73
2022/08/06 00:29:04;;;;;;;7.65;1.30;;;;;;;14.37;72.81;102036.97;4992507;28;20022;-73
2022/08/06 00:31:30;;;;;;;6.50;1.05;;;;;;;14.32;73.37;102039.31;4987134;28;20066;-73
2022/08/06 00:33:55;;;;;;;8.30;1.45;;;;;;;14.29;73.53;102050.53;4984515;28;20153;-73
2022/08/06 00:36:22;;;;;;;6.55;1.20;;;;;;;14.16;73.99;102044.59;4996257;28;20033;-73
2022/08/06 00:38:48;;;;;;;9.38;1.42;;;;;;;14.20;73.82;102039.69;4986559;28;20023;-73
2022/08/06 00:41:14;;;;;;;6.80;1.77;;;;;;;14.35;73.24;102054.50;4987624;28;20022;-73
2022/08/06 00:43:41;;;;;;;8.57;1.48;;;;;;;14.25;73.56;102057.28;4996963;28;20108;-73
2022/08/06 00:46:07;;;;;;;12.43;1.40;;;;;;;14.30;73.66;102059.56;4990230;28;20026;-74
2022/08/06 00:48:32;;;;;;;5.88;1.45;;;;;;;14.24;73.62;102055.56;4985449;28;20042;-73
2022/08/06 00:50:57;;;;;;;4.80;1.33;;;;;;;14.15;74.04;102061.06;4987014;28;20112;-74
2022/08/06 00:53:23;;;;;;;5.95;1.60;;;;;;;14.20;73.88;102062.31;5002447;28;20093;-72
2022/08/06 00:55:48;;;;;;;4.15;1.20;;;;;;;14.31;73.84;102075.75;4993232;28;20026;-75
2022/08/06 00:58:14;;;;;;;7.38;1.20;;;;;;;14.27;74.00;102066.16;4982270;28;20122;-75
2022/08/06 01:00:39;;;;;;;8.75;1.63;;;;;;;14.15;74.44;102078.28;4994595;28;20109;-74
2022/08/06 01:03:10;;;;;;;3.55;1.30;;;;;;;14.13;74.71;102077.56;4997451;28;20014;-74
2022/08/06 01:05:35;;;;;;;5.07;1.73;;;;;;;14.02;74.95;102089.53;4989453;28;20022;-74
2022/08/06 01:08:01;;;;;;;3.88;1.42;;;;;;;13.96;75.03;102086.56;4999839;28;20010;-74
2022/08/06 01:10:26;;;;;;;4.90;1.48;;;;;;;14.01;75.66;102084.22;4989468;28;20026;-74
2022/08/06 01:12:51;;;;;;;3.40;1.30;;;;;;;14.14;74.82;102095.63;5009425;28;20026;-74
2022/08/06 01:15:17;;;;;;;7.13;1.50;;;;;;;13.97;75.37;102091.00;4987234;28;20105;-75
2022/08/06 01:18:07;;;;;;;6.05;1.25;;;;;;;14.02;75.12;102088.69;4989887;28;20354;-74
2022/08/06 01:21:03;;;;;;;4.55;1.20;;;;;;;13.97;75.29;102082.81;4997344;28;20049;-75
2022/08/06 01:24:32;;;;;;;8.57;1.60;;;;;;;14.03;75.35;102095.84;4990549;28;20414;-75
2022/08/06 01:27:28;;;;;;;5.75;1.45;;;;;;;13.96;75.77;102102.91;4945663;28;20023;-74
2022/08/06 01:30:00;;;;;;;3.60;1.25;;;;;;;14.00;75.83;102104.28;4988059;28;20027;-75
2022/08/06 01:32:32;;;;;;;10.45;1.60;;;;;;;14.02;75.69;102102.31;4989042;28;20048;-76
2022/08/06 01:35:27;;;;;;;4.40;1.30;;;;;;;13.89;75.97;102107.22;4994834;28;20026;-74
2022/08/06 01:38:03;;;;;;;5.45;1.35;;;;;;;13.96;75.67;102120.09;4987853;28;20041;-74
2022/08/06 01:40:34;;;;;;;7.55;1.27;;;;;;;13.90;76.02;102114.41;4993554;28;20113;-74
2022/08/06 01:43:01;;;;;;;7.43;1.50;;;;;;;13.91;76.28;102105.22;4990342;28;20029;-75
2022/08/06 01:45:30;;;;;;;4.55;1.40;;;;;;;14.03;75.57;102112.19;4988915;28;20081;-74
2022/08/06 01:48:04;;;;;;;6.32;1.63;;;;;;;14.02;76.05;102114.06;4993968;28;20029;-73
2022/08/06 01:50:41;;;;;;;8.30;1.50;;;;;;;13.93;76.05;102116.81;4986890;28;20085;-73
2022/08/06 01:53:11;;;;;;;8.05;1.58;;;;;;;13.84;76.71;102111.25;4987425;28;20049;-72
2022/08/06 01:55:42;;;;;;;9.00;1.70;;;;;;;13.96;76.08;102111.06;4989116;28;20022;-72
2022/08/06 01:58:09;;;;;;;6.57;1.38;;;;;;;13.74;76.71;102110.41;4992213;28;20022;-73
2022/08/06 02:00:39;;;;;;;9.48;1.73;;;;;;;13.59;77.70;102106.47;4993610;28;20026;-73
2022/08/06 02:03:16;;;;;;;7.85;1.52;;;;;;;13.72;76.88;102112.44;4994568;28;20072;-72
2022/08/06 02:05:44;;;;;;;2.90;1.50;;;;;;;13.87;76.30;102109.22;4990527;28;20022;-72
2022/08/06 02:08:14;;;;;;;5.35;1.67;;;;;;;13.77;76.95;102118.31;4994530;28;20030;-72
2022/08/06 02:10:41;;;;;;;5.70;1.30;;;;;;;13.67;77.16;102117.47;4988932;28;20030;-72
2022/08/06 02:13:10;;;;;;;5.38;1.58;;;;;;;13.56;77.42;102106.75;4990033;28;20022;-74
2022/08/06 02:15:37;;;;;;;8.15;1.73;;;;;;;13.65;77.33;102114.03;4988197;28;20026;-73
2022/08/06 02:18:05;;;;;;;3.00;1.42;;;;;;;13.68;77.04;102113.72;4989327;28;20018;-74
2022/08/06 02:20:38;;;;;;;6.45;1.60;;;;;;;13.69;76.63;102110.03;4986591;28;20018;-72
2022/08/06 02:23:07;;;;;;;5.13;1.60;;;;;;;13.56;76.98;102114.91;4995172;28;20441;-72
2022/08/06 02:25:36;;;;;;;8.50;1.85;;;;;;;13.63;77.04;102113.34;4995440;28;20026;-72
2022/08/06 02:28:04;;;;;;;7.03;1.40;;;;;;;13.67;76.67;102114.75;4998633;28;20029;-73
2022/08/06 02:30:35;;;;;;;5.20;1.63;;;;;;;13.51;77.03;102115.38;4981041;28;20034;-73
2022/08/06 02:33:01;;;;;;;6.00;1.23;;;;;;;13.61;77.34;102112.59;4991682;28;20018;-74
2022/08/06 02:35:28;;;;;;;10.60;1.73;;;;;;;13.60;76.72;102102.72;4988507;28;20292;-74
2022/08/06 02:38:09;;;;;;;10.88;1.80;;;;;;;13.41;77.36;102116.38;4985093;28;20031;-73
2022/08/06 02:40:40;;;;;;;9.65;1.83;;;;;;;13.51;76.63;102114.53;4991103;28;20049;-72
2022/08/06 02:43:15;;;;;;;3.58;1.52;;;;;;;13.30;77.18;102112.84;5003083;28;20030;-73
2022/08/06 02:45:46;;;;;;;5.80;1.42;;;;;;;13.20;77.80;102122.88;4992109;28;20026;-72
2022/08/06 02:48:55;;;;;;;9.93;2.22;;;;;;;13.08;79.37;102129.41;4999452;28;20029;-73
2022/08/06 02:51:28;;;;;;;5.43;1.58;;;;;;;13.14;79.02;102128.84;4986708;28;20030;-75
2022/08/06 02:54:03;;;;;;;6.25;1.90;;;;;;;13.37;78.39;102134.03;4990338;28;20082;-75
2022/08/06 02:56:30;;;;;;;7.65;2.05;;;;;;;13.36;78.52;102126.84;4991475;28;20030;-73
2022/08/06 02:58:58;;;;;;;7.60;1.55;;;;;;;13.24;78.02;102135.19;4996264;28;20484;-73
2022/08/06 03:01:29;;;;;;;6.63;1.92;;;;;;;13.15;78.62;102136.00;4990547;28;20030;-72
2022/08/06 03:03:57;;;;;;;9.63;1.88;;;;;;;13.11;78.69;102134.59;4995787;28;20077;-73
2022/08/06 03:06:25;;;;;;;8.65;1.90;;;;;;;13.14;78.70;102134.28;4990142;28;20081;-72
2022/08/06 03:08:53;;;;;;;13.88;1.35;;;;;;;13.16;78.45;102132.28;4990968;28;20022;-72
2022/08/06 03:11:21;;;;;;;5.57;1.45;;;;;;;13.09;79.39;102139.28;4990313;28;20030;-73
2022/08/06 03:13:48;;;;;;;7.35;1.67;;;;;;;13.17;78.93;102139.47;4990765;28;20057;-74
2022/08/06 03:16:15;;;;;;;6.20;1.60;;;;;;;13.23;78.92;102136.16;4992086;28;20018;-73
2022/08/06 03:18:43;;;;;;;5.55;1.52;;;;;;;13.13;78.84;102143.47;4994701;28;20061;-73
2022/08/06 03:21:10;;;;;;;9.90;1.40;;;;;;;13.02;79.62;102146.31;4986838;28;20030;-73
2022/08/06 03:23:37;;;;;;;6.55;1.85;;;;;;;13.00;79.02;102151.91;4995848;28;20421;-72
2022/08/06 03:26:05;;;;;;;9.00;1.92;;;;;;;13.09;79.06;102152.88;4989745;28;20117;-74
2022/08/06 03:28:33;;;;;;;9.45;1.75;;;;;;;12.98;79.40;102156.63;4991001;28;20045;-72
2022/08/06 03:30:59;;;;;;;14.18;2.03;;;;;;;13.13;79.01;102159.78;4993277;28;20018;-74
2022/08/06 03:33:26;;;;;;;6.72;1.67;;;;;;;13.10;78.74;102151.88;4997448;28;20026;-72
2022/08/06 03:35:56;;;;;;;5.63;1.70;;;;;;;13.05;78.94;102156.91;4993554;28;20089;-72
2022/08/06 03:38:24;;;;;;;8.95;1.80;;;;;;;13.04;79.26;102160.66;4994828;28;20426;-72
2022/08/06 03:40:50;;;;;;;9.55;1.88;;;;;;;12.97;79.51;102159.47;5003606;28;20077;-72
2022/08/06 03:43:16;;;;;;;14.05;1.83;;;;;;;13.02;78.80;102162.63;4998342;28;20022;-74
2022/08/06 03:45:49;;;;;;;4.80;1.65;;;;;;;12.96;79.15;102168.63;4996007;28;20131;-73
2022/08/06 03:48:20;;;;;;;3.95;1.25;;;;;;;13.04;79.19;102168.81;4996830;28;20018;-73
2022/08/06 03:50:48;;;;;;;9.60;1.65;;;;;;;13.07;79.16;102175.81;4994033;28;20026;-73
2022/08/06 03:53:24;;;;;;;10.32;1.75;;;;;;;13.07;78.55;102165.78;4992538;28;20374;-74
2022/08/06 03:55:52;;;;;;;11.55;2.13;;;;;;;12.95;78.72;102166.91;4993829;28;20034;-74
2022/08/06 03:58:19;;;;;;;6.88;1.80;;;;;;;13.14;78.68;102177.81;4994237;28;20446;-73
2022/08/06 04:00:56;;;;;;;4.10;1.50;;;;;;;12.98;79.09;102174.81;4991253;28;20034;-73
2022/08/06 04:03:22;;;;;;;10.63;1.83;;;;;;;12.99;79.29;102179.25;4993088;28;20018;-73
2022/08/06 04:05:48;;;;;;;5.97;1.95;;;;;;;13.00;79.39;102170.94;4991747;28;20033;-73
2022/08/06 04:08:14;;;;;;;4.57;1.55;;;;;;;12.99;79.33;102181.94;5001075;28;20026;-73
2022/08/06 04:10:45;;;;;;;6.75;2.28;;;;;;;13.09;79.02;102182.81;4993097;28;20045;-73
2022/08/06 04:13:16;;;;;;;7.50;2.08;;;;;;;12.99;79.80;102185.53;4996694;28;20033;-74
2022/08/06 04:15:42;;;;;;;5.90;1.92;;;;;;;13.08;78.67;102177.50;4992721;28;20053;-73
2022/08/06 04:18:12;;;;;;;5.78;1.75;;;;;;;13.10;79.05;102187.22;4993661;28;20319;-73
2022/08/06 04:20:44;;;;;;;10.18;1.88;;;;;;;13.20;78.83;102193.59;4992324;28;20049;-73
2022/08/06 04:23:09;;;;;;;;;;;;;;;13.05;79.44;102192.25;4991173;28;20035;-74
2022/08/06 04:25:39;;;;;;;10.57;1.67;;;;;;;13.06;78.86;102191.25;4995869;28;19909;-73
2022/08/06 04:28:06;;;;;;;7.05;1.83;;;;;;;13.04;79.29;102193.28;4999275;28;20026;-73
2022/08/06 04:30:34;;;;;;;4.95;1.67;;;;;;;13.22;78.98;102202.44;4989512;28;20026;-74
2022/08/06 04:33:03;;;;;;;8.68;2.22;;;;;;;13.34;78.20;102199.59;4987901;28;20040;-73
2022/08/06 04:35:30;;;;;;;6.85;2.38;;;;;;;13.33;78.55;102198.72;4988014;28;20045;-74
2022/08/06 04:37:55;;;;;;;6.13;1.65;;;;;;;13.21;79.62;102206.19;4993690;28;20034;-74
2022/08/06 04:40:22;;;;;;;8.15;2.25;;;;;;;13.28;79.39;102206.47;5000165;28;20030;-73
2022/08/06 04:42:48;;;;;;;6.22;1.55;;;;;;;13.24;79.40;102214.06;4996436;28;20042;-73
2022/08/06 04:45:13;;;;;;;7.13;1.95;;;;;;;13.35;78.90;102223.06;4993617;28;20034;-73
2022/08/06 04:47:39;;;;;;;5.07;1.98;;;;;;;13.47;78.60;102221.91;4991817;28;20081;-73
2022/08/06 04:50:05;;;;;;;6.22;2.25;;;;;;;13.56;78.64;102221.03;4991269;28;20022;-74
2022/08/06 04:52:32;;;;;;;4.05;1.50;;;;;;;13.60;78.47;102227.94;4992729;28;20022;-74
2022/08/06 04:54:57;;;;;;;7.82;2.05;;;;;;;13.47;79.20;102243.69;4996098;28;20026;-73
2022/08/06 04:57:23;;;;;;;7.85;2.15;;;;;;;13.64;78.24;102239.41;4995785;28;20060;-73
2022/08/06 04:59:48;;;;;;;5.07;1.75;;;;;;;13.76;77.89;102238.25;4992322;28;20042;-73
2022/08/06 05:02:14;;;;;;;7.10;1.58;;;;;;;13.70;78.46;102242.41;4991866;28;20022;-73
2022/08/06 05:04:41;;;;;;;12.70;2.38;;;;;;;13.77;78.01;102248.97;4996093;28;20037;-73
2022/08/06 05:07:06;;;;;;;12.02;2.85;;;;;;;13.82;77.74;102238.50;4991728;28;20030;-73
2022/08/06 05:09:32;;;;;;;9.27;1.90;;;;;;;13.88;77.85;102247.06;4991248;28;20045;-73
2022/08/06 05:12:03;;;;;;;10.05;2.50;;;;;;;13.68;78.36;102255.28;4988428;28;20054;-73
2022/08/06 05:14:44;;;;;;;5.40;2.00;;;;;;;13.99;77.44;102255.09;4989880;28;20027;-73
2022/08/06 05:17:14;;;;;;;10.88;2.10;;;;;;;13.84;77.39;102258.28;4997032;28;20049;-74
2022/08/06 05:19:49;;;;;;;9.40;1.70;;;;;;;13.66;77.99;102270.91;4990982;28;20038;-73
2022/08/06 05:22:18;;;;;;;12.25;1.92;;;;;;;13.66;77.48;102268.19;4997970;28;20026;-73
2022/08/06 05:24:44;;;;;;;9.40;1.80;;;;;;;13.99;76.84;102265.97;4996283;28;20029;-74
2022/08/06 05:27:10;;;;;;;9.75;2.30;;;;;;;13.96;76.66;102271.75;4990465;28;20026;-73
2022/08/06 05:29:35;;;;;;;12.80;1.92;;;;;;;14.10;76.08;102274.00;4988120;28;20077;-73
2022/08/06 05:32:02;;;;;;;4.80;1.88;;;;;;;14.28;75.38;102283.13;4989913;28;20069;-73
2022/08/06 05:34:27;;;;;;;12.52;2.00;;;;;;;14.43;75.05;102279.91;4989298;28;20073;-73
2022/08/06 05:36:53;;;;;;;6.13;1.80;;;;;;;14.35;74.14;102289.69;4977952;28;20032;-73
2022/08/06 05:39:19;;;;;;;9.73;1.58;;;;;;;14.39;74.36;102280.19;4988131;28;20030;-73
2022/08/06 05:41:46;;;;;;;8.95;1.70;;;;;;;14.72;72.98;102291.56;4990782;28;20050;-74
2022/08/06 05:44:11;;;;;;;7.28;1.25;;;;;;;14.99;71.80;102292.56;4994204;28;20024;-74
2022/08/06 05:46:45;;;;;;;4.85;1.38;;;;;;;15.04;71.38;102302.03;4995794;28;20038;-73
2022/08/06 05:49:14;;;;;;;6.60;2.05;;;;;;;15.13;71.05;102303.00;5006395;28;20370;-74
2022/08/06 05:51:49;;;;;;;9.00;1.27;;;;;;;14.98;71.29;102301.78;4991869;28;20106;-76
2022/08/06 05:54:52;;;;;;;4.63;1.77;;;;;;;15.04;71.51;102301.16;4988310;28;20608;-73
2022/08/06 05:57:40;;;;;;;11.30;2.15;;;;;;;15.30;71.10;102302.16;4988099;28;20065;-74
2022/08/06 06:00:10;;;;;;;8.40;1.42;;;;;;;15.67;70.31;102309.38;4990244;28;20472;-73
2022/08/06 06:02:40;;;;;;;5.05;1.63;;;;;;;15.84;69.82;102305.75;4991647;28;20104;-74
2022/08/06 06:05:07;;;;;;;2.42;1.10;;;;;;;15.48;70.25;102316.69;4991791;28;20508;-73
2022/08/06 06:07:33;;;;;;;10.52;1.98;;;;;;;15.60;69.84;102308.25;4991478;28;20026;-74
2022/08/06 06:10:01;;;;;;;5.95;1.30;;;;;;;15.74;70.08;102313.19;4993996;28;20030;-73
2022/08/06 06:12:28;;;;;;;8.80;1.63;;;;;;;15.84;69.29;102316.69;4989643;28;20106;-73
2022/08/06 06:14:54;;;;;;;5.10;1.40;;;;;;;15.98;69.13;102324.34;4991388;28;20117;-73
2022/08/06 06:17:54;;;;;;;9.55;1.25;;;;;;;16.07;67.99;102321.66;4994225;28;20030;-73
2022/08/06 06:20:24;;;;;;;4.40;1.15;;;;;;;15.94;68.82;102330.28;4995609;28;20023;-72
2022/08/06 06:23:14;;;;;;;5.93;1.42;;;;;;;15.66;69.30;102329.53;4994739;28;20113;-72
2022/08/06 06:26:01;;;;;;;3.28;1.25;;;;;;;15.75;69.33;102331.28;4983492;28;20034;-73
2022/08/06 06:28:35;;;;;;;3.42;1.50;;;;;;;15.67;70.16;102333.97;4996414;28;20106;-74
2022/08/06 06:31:30;;;;;;;6.15;1.50;;;;;;;15.74;69.41;102332.31;4990564;28;20110;-76
2022/08/06 06:34:19;;;;;;;4.57;1.65;;;;;;;15.68;70.72;102332.94;4995591;28;20116;-72
2022/08/06 06:36:48;;;;;;;2.40;1.38;;;;;;;15.95;69.68;102335.56;4986867;28;20081;-74
2022/08/06 06:39:32;;;;;;;4.38;1.50;;;;;;;15.74;69.85;102332.31;4991768;28;20030;-73
2022/08/06 06:42:10;;;;;;;6.57;1.35;;;;;;;15.65;69.93;102349.66;4991396;28;20032;-73
2022/08/06 06:44:55;;;;;;;6.20;1.38;;;;;;;15.72;69.63;102334.34;4989474;28;20648;-74
2022/08/06 06:47:36;;;;;;;7.60;1.58;;;;;;;15.73;69.30;102336.06;4994677;28;20105;-73
2022/08/06 06:50:11;;;;;;;7.80;1.40;;;;;;;15.95;68.89;102334.72;4995453;28;20033;-73
2022/08/06 06:52:43;;;;;;;9.90;1.30;;;;;;;15.83;69.34;102336.81;4983948;28;20030;-72
2022/08/06 06:55:24;;;;;;;;;;;;;;;15.88;69.19;102339.94;4990123;28;20037;-74
2022/08/06 06:58:14;;;;;;;5.13;1.40;;;;;;;15.86;69.17;102336.53;4993408;28;19972;-74
2022/08/06 07:00:42;;;;;;;8.68;1.52;;;;;;;16.05;68.50;102334.66;4986317;28;20042;-74
2022/08/06 07:03:09;;;;;;;5.03;1.17;;;;;;;16.08;67.72;102342.50;4990974;28;20023;-75
2022/08/06 07:05:37;;;;;;;5.38;1.67;;;;;;;16.04;67.62;102341.97;4994498;28;20044;-74
2022/08/06 07:08:04;;;;;;;3.38;1.00;;;;;;;16.23;68.05;102343.63;4990169;28;20062;-75
2022/08/06 07:10:31;;;;;;;6.35;1.13;;;;;;;16.41;66.52;102340.88;4999052;28;20034;-75
2022/08/06 07:12:57;;;;;;;5.97;1.33;;;;;;;16.23;66.84;102338.19;4989532;28;20027;-72
2022/08/06 07:15:24;;;;;;;10.23;1.55;;;;;;;16.17;67.46;102349.75;4995384;28;20026;-74
2022/08/06 07:17:51;;;;;;;24.58;2.13;;;;;;;16.28;66.84;102363.16;4994884;28;20018;-76
2022/08/06 07:20:21;;;;;;;10.73;1.20;;;;;;;16.57;65.88;102365.59;4995671;28;20022;-75
2022/08/06 07:22:47;;;;;;;10.63;2.35;;;;;;;16.46;65.83;102372.19;4997125;28;20049;-74
2022/08/06 07:25:14;;;;;;;8.52;1.10;;;;;;;16.46;65.66;102366.72;4992354;28;20042;-74
2022/08/06 07:27:44;;;;;;;10.98;1.25;;;;;;;16.73;65.83;102362.13;4995493;28;20026;-76
2022/08/06 07:30:11;;;;;;;5.43;1.10;;;;;;;16.61;65.67;102371.59;4995856;28;20080;-74
2022/08/06 07:32:38;;;;;;;5.93;0.80;;;;;;;16.87;65.38;102361.50;4992365;28;20030;-75
2022/08/06 07:35:05;;;;;;;5.65;0.93;;;;;;;17.21;64.40;102360.63;4996094;28;20018;-75
2022/08/06 07:37:31;;;;;;;4.75;0.90;;;;;;;17.09;64.64;102362.84;4991478;28;20065;-74
2022/08/06 07:40:00;;;;;;;8.40;1.33;;;;;;;17.12;63.42;102367.09;4980200;28;20027;-74
2022/08/06 07:42:28;;;;;;;2.88;1.00;;;;;;;17.38;63.28;102367.88;5001127;28;20120;-76
2022/08/06 07:44:59;;;;;;;5.20;1.42;;;;;;;17.54;61.79;102367.94;4989931;28;20027;-73
2022/08/06 07:47:41;;;;;;;6.13;1.70;;;;;;;17.88;60.64;102375.22;5002828;28;20035;-73
2022/08/06 07:50:09;;;;;;;;;;;;;;;18.00;60.09;102368.38;4992001;28;20038;-72
2022/08/06 07:52:35;;;;;;;2.72;1.00;;;;;;;17.89;59.62;102371.44;4991977;28;19918;-73
2022/08/06 07:55:01;;;;;;;5.53;1.00;;;;;;;17.75;59.54;102385.81;4991979;28;20049;-72
2022/08/06 07:57:28;;;;;;;4.22;0.90;;;;;;;17.08;62.47;102394.81;4994099;28;20108;-74
2022/08/06 07:59:54;;;;;;;4.72;1.15;;;;;;;16.72;66.19;102387.78;4986076;28;20046;-72
2022/08/06 08:02:19;;;;;;;5.13;1.17;;;;;;;16.61;67.11;102388.00;4993118;28;20104;-75
2022/08/06 08:07:31;;;;;;;5.07;1.20;;;;;;;17.03;64.43;102380.75;4987590;28;20027;-74
2022/08/06 08:09:59;;;;;;;2.22;1.25;;;;;;;17.19;63.64;102384.59;4983637;28;20086;-74
2022/08/06 08:12:25;;;;;;;3.72;1.02;;;;;;;17.34;63.74;102380.19;4976021;28;20037;-73
2022/08/06 08:14:51;;;;;;;8.70;1.17;;;;;;;17.66;62.76;102386.78;4985379;28;20034;-73
2022/08/06 08:17:17;;;;;;;4.93;1.00;;;;;;;17.87;63.08;102389.94;4990129;28;20113;-74
2022/08/06 08:19:43;;;;;;;2.45;0.80;;;;;;;17.92;63.13;102387.53;4991441;28;20098;-74
2022/08/06 08:22:16;;;;;;;7.60;1.10;;;;;;;17.67;62.33;102383.00;4999182;28;20378;-74
2022/08/06 08:24:44;;;;;;;6.90;1.20;;;;;;;18.27;58.80;102374.53;4980670;28;20022;-74
2022/08/06 08:27:10;;;;;;;5.72;1.10;;;;;;;18.43;58.58;102380.00;4988869;28;20080;-74
2022/08/06 08:29:40;;;;;;;7.65;1.40;;;;;;;18.00;57.90;102379.34;4996834;28;20034;-74
2022/08/06 08:32:07;;;;;;;3.13;0.98;;;;;;;17.61;59.46;102390.03;4989785;28;20033;-73
2022/08/06 08:34:32;;;;;;;5.75;1.27;;;;;;;17.51;58.38;102390.16;4987459;28;20034;-73
2022/08/06 08:36:58;;;;;;;3.67;1.20;;;;;;;17.95;57.08;102387.22;4983040;28;20037;-74
2022/08/06 08:39:23;;;;;;;5.13;1.30;;;;;;;17.94;56.68;102390.97;4994628;28;20037;-74
2022/08/06 08:41:52;;;;;;;7.43;1.15;;;;;;;18.21;56.89;102386.19;5000331;28;20022;-74
2022/08/06 08:44:27;;;;;;;3.50;0.70;;;;;;;18.85;56.08;102384.44;4990854;28;20062;-74
2022/08/06 08:46:57;;;;;;;4.10;0.90;;;;;;;19.06;53.92;102403.91;4986491;28;20058;-73
2022/08/06 08:49:45;;;;;;;3.78;0.80;;;;;;;18.52;55.26;102406.41;4991104;28;20113;-72
2022/08/06 08:52:27;;;;;;;4.22;0.80;;;;;;;18.00;56.81;102406.75;4987393;28;20039;-73
2022/08/06 08:54:56;;;;;;;5.88;1.30;;;;;;;18.26;56.55;102397.50;4988495;28;20053;-74
2022/08/06 08:57:22;;;;;;;6.18;1.20;;;;;;;18.62;54.58;102407.06;4992385;28;20069;-73
2022/08/06 08:59:48;;;;;;;4.53;1.15;;;;;;;18.62;53.69;102412.56;4994629;28;20404;-73
2022/08/06 09:02:14;;;;;;;2.97;1.05;;;;;;;18.63;54.00;102418.91;4990855;28;20041;-74
2022/08/06 09:04:40;;;;;;;3.22;0.85;;;;;;;18.74;54.58;102404.00;4988378;28;20018;-73
2022/08/06 09:07:08;;;;;;;2.90;0.68;;;;;;;19.09;53.70;102403.53;4989363;28;20018;-74
2022/08/06 09:09:34;;;;;;;2.45;0.90;;;;;;;19.47;53.01;102417.47;4989833;28;20038;-76
2022/08/06 09:12:01;;;;;;;2.67;0.93;;;;;;;19.38;52.29;102415.81;4990317;28;20548;-74
2022/08/06 09:14:26;;;;;;;4.88;0.90;;;;;;;19.43;50.98;102418.84;4997626;28;20449;-75
2022/08/06 09:16:52;;;;;;;10.27;0.70;;;;;;;19.36;51.92;102415.97;4989401;28;20034;-76
2022/08/06 09:19:18;;;;;;;4.85;0.95;;;;;;;19.46;52.40;102421.25;4993364;28;20022;-74
2022/08/06 09:21:44;;;;;;;5.15;1.10;;;;;;;19.50;51.43;102411.63;4997373;28;20023;-76
2022/08/06 09:24:10;;;;;;;2.92;0.90;;;;;;;19.87;49.74;102407.28;4987821;28;20112;-75
2022/08/06 09:26:35;;;;;;;4.53;1.23;;;;;;;19.29;50.35;102414.97;4970608;28;20122;-77
2022/08/06 09:29:01;;;;;;;4.50;1.30;;;;;;;19.43;50.50;102427.09;4986108;28;20034;-75
2022/08/06 09:31:27;;;;;;;4.97;1.27;;;;;;;19.43;51.36;102416.09;4992863;28;20023;-75
2022/08/06 09:33:58;;;;;;;7.03;1.00;;;;;;;19.81;50.21;102410.78;4985722;28;20033;-74
2022/08/06 09:36:24;;;;;;;3.70;1.10;;;;;;;19.94;49.00;102424.78;4990545;28;20037;-75
2022/08/06 09:38:49;;;;;;;7.40;1.23;;;;;;;19.57;50.45;102429.09;4989557;28;20085;-75
2022/08/06 09:41:17;;;;;;;6.45;1.08;;;;;;;19.60;50.98;102417.78;4996486;28;20037;-75
2022/08/06 09:43:44;;;;;;;2.92;1.00;;;;;;;19.47;50.66;102418.31;4994601;28;20077;-75
2022/08/06 09:46:09;;;;;;;4.20;0.90;;;;;;;19.75;49.93;102426.94;4989506;28;20068;-75
2022/08/06 09:48:35;;;;;;;5.72;1.67;;;;;;;20.09;49.78;102428.47;4993656;28;20438;-74
2022/08/06 09:51:01;;;;;;;7.25;1.10;;;;;;;20.20;49.50;102433.50;5001796;28;20113;-75
2022/08/06 09:53:26;;;;;;;3.20;1.00;;;;;;;20.12;49.22;102422.59;4990068;28;20481;-77
2022/08/06 09:55:54;;;;;;;7.20;0.90;;;;;;;20.38;49.20;102427.69;4988819;28;20057;-75
2022/08/06 09:58:31;;;;;;;7.97;1.33;;;;;;;20.21;49.80;102432.50;4995412;28;20042;-74
2022/08/06 10:00:57;;;;;;;6.22;1.25;;;;;;;19.64;50.99;102441.13;4987526;28;20033;-74
2022/08/06 10:03:23;;;;;;;11.00;1.13;;;;;;;19.09;53.08;102439.25;4991507;28;20022;-74
2022/08/06 10:06:03;;;;;;;2.90;1.00;;;;;;;18.89;52.31;102446.16;4991763;28;20053;-74
2022/08/06 10:08:28;;;;;;;3.15;0.98;;;;;;;19.32;51.79;102436.59;4991860;28;20062;-75
2022/08/06 10:10:54;;;;;;;7.65;1.05;;;;;;;19.01;52.13;102442.00;4985212;28;20058;-75
2022/08/06 10:13:24;;;;;;;5.50;0.90;;;;;;;19.19;51.83;102437.16;4992201;28;20030;-75
2022/08/06 10:15:51;;;;;;;5.25;1.55;;;;;;;19.29;52.07;102436.09;4992193;28;20019;-75
2022/08/06 10:18:43;;;;;;;4.57;1.10;;;;;;;19.53;52.45;102439.59;4987192;28;20097;-75
2022/08/06 10:21:17;;;;;;;5.57;1.30;;;;;;;19.18;52.20;102440.94;4981696;28;20035;-75
2022/08/06 10:23:48;;;;;;;5.50;1.40;;;;;;;18.84;53.16;102443.91;4983151;28;20018;-75
2022/08/06 10:26:18;;;;;;;2.73;1.10;;;;;;;18.81;53.27;102432.47;4979790;28;20030;-76
2022/08/06 10:28:46;;;;;;;5.05;1.17;;;;;;;19.33;52.69;102437.44;4976966;28;20023;-75
2022/08/06 10:31:14;;;;;;;5.07;1.45;;;;;;;19.94;51.13;102435.78;4985749;28;20025;-75
2022/08/06 10:33:49;;;;;;;6.30;1.10;;;;;;;19.56;48.09;102430.13;4977442;28;20030;-74
2022/08/06 10:36:18;;;;;;;3.63;0.95;;;;;;;20.20;47.35;102429.91;4978760;28;20385;-74
2022/08/06 10:38:46;;;;;;;5.40;1.15;;;;;;;20.45;45.62;102422.34;4982469;28;20081;-74
2022/08/06 10:41:13;;;;;;;4.88;1.30;;;;;;;21.18;43.82;102435.34;4992049;28;20022;-74
2022/08/06 10:43:39;;;;;;;5.22;1.50;;;;;;;21.38;43.38;102430.97;4997172;28;20018;-74
2022/08/06 10:46:07;;;;;;;7.32;1.60;;;;;;;21.43;43.64;102426.81;4993496;28;20095;-74
2022/08/06 10:51:07;;;;;;;4.97;1.48;;;;;;;20.68;48.46;102428.69;5011877;23;20489;-75
2022/08/06 10:53:34;;;;;;;7.93;1.83;;;;;;;20.54;48.46;102421.25;5004847;28;20029;-76
2022/08/06 10:56:03;;;;;;;8.45;2.30;;;;;;;19.85;50.15;102437.72;5019934;28;20273;-75
2022/08/06 10:58:33;;;;;;;8.60;2.45;;;;;;;19.82;50.89;102438.06;5006339;28;20412;-75
2022/08/06 11:01:05;;;;;;;6.93;2.00;;;;;;;19.84;49.51;102437.91;4984785;28;20022;-74
2022/08/06 11:03:43;;;;;;;6.53;2.60;;;;;;;19.63;47.94;102436.66;4986153;28;20604;-75
2022/08/06 11:06:37;;;;;;;9.88;2.83;;;;;;;19.35;47.68;102435.38;4987339;28;20113;-74
2022/08/06 11:09:33;;;;;;;5.22;2.25;;;;;;;19.31;46.90;102428.53;4999007;28;20389;-76
2022/08/06 11:12:32;;;;;;;9.23;2.80;;;;;;;19.63;46.17;102427.56;4968584;28;20042;-75
2022/08/06 11:14:59;;;;;;;6.70;2.95;;;;;;;20.03;45.99;102420.94;4989438;28;20018;-74
2022/08/06 11:17:25;;;;;;;4.53;2.80;;;;;;;20.75;44.43;102417.75;4985621;28;20019;-76
2022/08/06 11:19:57;;;;;;;4.45;2.67;;;;;;;21.39;42.35;102410.66;4985496;28;20108;-76
2022/08/06 11:23:00;;;;;;;6.82;3.42;;;;;;;21.06;41.56;102396.41;4986652;28;20474;-75
2022/08/06 11:25:45;;;;;;;7.97;3.78;;;;;;;21.65;41.35;102403.78;5005639;28;20038;-74
2022/08/06 11:28:40;;;;;;;10.15;3.20;;;;;;;22.55;39.98;102405.09;4988366;28;20018;-76
2022/08/06 11:31:48;;;;;;;6.22;3.05;;;;;;;22.20;40.21;102405.00;4952147;28;20027;-75
2022/08/06 11:34:16;;;;;;;7.50;2.80;;;;;;;21.95;39.75;102410.88;4947258;28;20031;-76
2022/08/06 11:36:54;;;;;;;12.88;3.17;;;;;;;21.74;40.01;102399.84;4972239;28;20030;-75
2022/08/06 11:39:21;;;;;;;8.75;3.50;;;;;;;21.04;40.96;102405.91;4991591;28;20023;-76
2022/08/06 11:42:03;;;;;;;10.45;3.30;;;;;;;20.36;41.65;102420.69;4991273;28;20068;-76
2022/08/06 11:44:34;;;;;;;7.00;3.40;;;;;;;20.10;42.29;102408.16;4986167;28;20120;-74
2022/08/06 11:47:18;;;;;;;10.15;3.10;;;;;;;20.35;40.87;102424.47;4992181;28;20034;-75